Salt Creek, Ohio
Current Conditions -  °F | °C
As of 3:32 AM on Thursday 27 Nov 2014 (Local Time) from KBJJ Reporting Station
Haze Haze  
Wind Chill: 23°   Ceiling: 900
Heat Index: 31°   Visibility: 6mi
Dew Point: 28°   Wind: 9mph
Humidity: 89%   Direction: 290°WNW
Pressure: 30.01"   Gusts: NA
Location:  40.6236°N, 81.7849°W
Report Text: KBJJ 270832Z AUTO 29008KT 6SM BR BKN009 OVC014 M01/M02 A3001 RMK AO2 T10061022 TSNO
Loading
Personal Weather Stations






























Interactive Weather Map New forecast layout! Learn more

10-Day Weather Forecast

Advertisements
Track Severe Weather on mobile